CAZ6 weather

Fort St. James/Stuart River Seaplane Base
Fort St. James, British Columbia, Canada

Public forecast

Using degrees Celsius for public forecast. Weather courtesy of forecast.io.

METAR (pilot weather report)

Closest report is Prince George Airport, 64.4 nm (119.2 km) ESE. Retrieved 2019/08/22 05:00 UTC (13 minutes ago):

CYXS 220500Z AUTO 23007KT 9SM SCT140 SCT160 BKN180 14/04 A2987 RMK SLP119 DENSITY ALT 2700FT

TAF (pilot weather forecast)

Closest forecast is Prince George Airport, 64.4 nm (119.2 km) ESE. Retrieved 2019/08/22 01:39 UTC (4 hours ago):

TAF CYXS 220038Z 2201/2213 27015G25KT P6SM SCT120 BECMG 2201/2203 27012KT FM221000 20008KT P6SM SCT040 RMK FCST BASED ON AUTO OBS. NXT FCST BY 220700Z